sensor_id;sensor_type;location;lat;lon;timestamp;P1;durP1;ratioP1;P2;durP2;ratioP2
4674;SDS011;2351;50.812;12.872;2023-06-01T00:00:39;6.07;;;2.90;;
4674;SDS011;2351;50.812;12.872;2023-06-01T00:03:11;8.30;;;3.90;;
4674;SDS011;2351;50.812;12.872;2023-06-01T00:05:42;4.30;;;2.90;;
4674;SDS011;2351;50.812;12.872;2023-06-01T00:08:14;4.00;;;3.60;;
4674;SDS011;2351;50.812;12.872;2023-06-01T00:10:47;4.97;;;3.33;;
4674;SDS011;2351;50.812;12.872;2023-06-01T00:13:19;11.90;;;3.70;;
4674;SDS011;2351;50.812;12.872;2023-06-01T00:15:51;6.23;;;3.40;;
4674;SDS011;2351;50.812;12.872;2023-06-01T00:18:22;9.40;;;3.90;;
4674;SDS011;2351;50.812;12.872;2023-06-01T00:20:56;8.17;;;3.40;;
4674;SDS011;2351;50.812;12.872;2023-06-01T00:23:27;4.60;;;2.93;;
4674;SDS011;2351;50.812;12.872;2023-06-01T00:26:01;8.37;;;3.80;;
4674;SDS011;2351;50.812;12.872;2023-06-01T00:28:33;3.70;;;3.10;;
4674;SDS011;2351;50.812;12.872;2023-06-01T00:31:05;4.97;;;3.30;;
4674;SDS011;2351;50.812;12.872;2023-06-01T00:33:36;4.30;;;3.23;;
4674;SDS011;2351;50.812;12.872;2023-06-01T00:36:08;5.80;;;3.60;;
4674;SDS011;2351;50.812;12.872;2023-06-01T00:38:40;14.90;;;4.37;;
4674;SDS011;2351;50.812;12.872;2023-06-01T00:41:13;6.47;;;3.83;;
4674;SDS011;2351;50.812;12.872;2023-06-01T00:43:45;6.90;;;3.23;;
4674;SDS011;2351;50.812;12.872;2023-06-01T00:46:16;5.00;;;3.13;;
4674;SDS011;2351;50.812;12.872;2023-06-01T00:48:48;2.97;;;2.67;;
4674;SDS011;2351;50.812;12.872;2023-06-01T00:51:20;3.80;;;2.97;;
4674;SDS011;2351;50.812;12.872;2023-06-01T00:53:52;7.10;;;3.17;;
4674;SDS011;2351;50.812;12.872;2023-06-01T00:56:25;4.37;;;3.13;;
4674;SDS011;2351;50.812;12.872;2023-06-01T00:58:58;7.30;;;3.03;;
4674;SDS011;2351;50.812;12.872;2023-06-01T01:01:30;4.70;;;3.10;;
4674;SDS011;2351;50.812;12.872;2023-06-01T01:04:03;3.90;;;2.77;;
4674;SDS011;2351;50.812;12.872;2023-06-01T01:06:38;4.57;;;3.50;;
4674;SDS011;2351;50.812;12.872;2023-06-01T01:09:22;10.50;;;3.47;;
4674;SDS011;2351;50.812;12.872;2023-06-01T01:12:01;17.43;;;3.63;;
4674;SDS011;2351;50.812;12.872;2023-06-01T01:14:39;6.40;;;4.40;;
4674;SDS011;2351;50.812;12.872;2023-06-01T01:17:19;5.97;;;3.40;;
4674;SDS011;2351;50.812;12.872;2023-06-01T01:20:02;5.77;;;3.83;;
4674;SDS011;2351;50.812;12.872;2023-06-01T01:22:54;5.43;;;3.60;;
4674;SDS011;2351;50.812;12.872;2023-06-01T01:25:46;5.67;;;3.60;;
4674;SDS011;2351;50.812;12.872;2023-06-01T01:28:42;6.73;;;3.20;;
4674;SDS011;2351;50.812;12.872;2023-06-01T01:31:18;5.87;;;3.57;;
4674;SDS011;2351;50.812;12.872;2023-06-01T01:33:54;18.07;;;3.27;;
4674;SDS011;2351;50.812;12.872;2023-06-01T01:36:26;8.10;;;3.87;;
4674;SDS011;2351;50.812;12.872;2023-06-01T01:38:59;4.80;;;2.67;;
4674;SDS011;2351;50.812;12.872;2023-06-01T01:41:31;4.27;;;3.20;;
4674;SDS011;2351;50.812;12.872;2023-06-01T01:44:04;3.80;;;3.40;;
4674;SDS011;2351;50.812;12.872;2023-06-01T01:46:38;6.23;;;3.47;;
4674;SDS011;2351;50.812;12.872;2023-06-01T01:49:17;8.07;;;4.10;;
4674;SDS011;2351;50.812;12.872;2023-06-01T01:51:54;5.13;;;3.63;;
4674;SDS011;2351;50.812;12.872;2023-06-01T01:54:30;4.77;;;3.80;;
4674;SDS011;2351;50.812;12.872;2023-06-01T01:57:04;5.47;;;3.93;;
4674;SDS011;2351;50.812;12.872;2023-06-01T01:59:37;4.43;;;3.40;;
4674;SDS011;2351;50.812;12.872;2023-06-01T02:02:10;3.33;;;3.03;;
4674;SDS011;2351;50.812;12.872;2023-06-01T02:04:42;6.80;;;3.73;;
4674;SDS011;2351;50.812;12.872;2023-06-01T02:07:16;5.73;;;3.93;;
4674;SDS011;2351;50.812;12.872;2023-06-01T02:09:47;6.13;;;3.20;;
4674;SDS011;2351;50.812;12.872;2023-06-01T02:12:19;6.63;;;3.73;;
4674;SDS011;2351;50.812;12.872;2023-06-01T02:14:52;5.10;;;3.40;;
4674;SDS011;2351;50.812;12.872;2023-06-01T02:17:24;5.60;;;3.73;;
4674;SDS011;2351;50.812;12.872;2023-06-01T02:19:56;6.00;;;2.93;;
4674;SDS011;2351;50.812;12.872;2023-06-01T02:22:28;5.27;;;3.27;;
4674;SDS011;2351;50.812;12.872;2023-06-01T02:25:00;4.37;;;2.83;;
4674;SDS011;2351;50.812;12.872;2023-06-01T02:27:35;3.80;;;3.43;;
4674;SDS011;2351;50.812;12.872;2023-06-01T02:30:08;4.03;;;3.60;;
4674;SDS011;2351;50.812;12.872;2023-06-01T02:32:41;18.73;;;3.63;;
4674;SDS011;2351;50.812;12.872;2023-06-01T02:35:15;7.67;;;3.60;;
4674;SDS011;2351;50.812;12.872;2023-06-01T02:37:46;7.63;;;4.20;;
4674;SDS011;2351;50.812;12.872;2023-06-01T02:40:18;5.30;;;3.70;;
4674;SDS011;2351;50.812;12.872;2023-06-01T02:42:50;4.47;;;3.33;;
4674;SDS011;2351;50.812;12.872;2023-06-01T02:45:23;9.43;;;3.73;;
4674;SDS011;2351;50.812;12.872;2023-06-01T02:47:55;5.73;;;3.33;;
4674;SDS011;2351;50.812;12.872;2023-06-01T02:50:27;5.70;;;3.67;;
4674;SDS011;2351;50.812;12.872;2023-06-01T02:52:58;7.87;;;4.13;;
4674;SDS011;2351;50.812;12.872;2023-06-01T02:55:30;4.23;;;3.00;;
4674;SDS011;2351;50.812;12.872;2023-06-01T02:58:02;5.17;;;3.13;;
4674;SDS011;2351;50.812;12.872;2023-06-01T03:00:35;5.47;;;3.80;;
4674;SDS011;2351;50.812;12.872;2023-06-01T03:03:06;6.73;;;3.27;;
4674;SDS011;2351;50.812;12.872;2023-06-01T03:05:38;6.13;;;3.33;;
4674;SDS011;2351;50.812;12.872;2023-06-01T03:08:13;5.27;;;3.60;;
4674;SDS011;2351;50.812;12.872;2023-06-01T03:10:46;12.90;;;3.93;;
4674;SDS011;2351;50.812;12.872;2023-06-01T03:13:18;10.63;;;4.23;;
4674;SDS011;2351;50.812;12.872;2023-06-01T03:15:51;4.40;;;3.20;;
4674;SDS011;2351;50.812;12.872;2023-06-01T03:18:23;4.67;;;3.70;;
4674;SDS011;2351;50.812;12.872;2023-06-01T03:20:55;3.70;;;3.20;;
4674;SDS011;2351;50.812;12.872;2023-06-01T03:23:27;6.13;;;3.83;;
4674;SDS011;2351;50.812;12.872;2023-06-01T03:26:00;6.10;;;3.50;;
4674;SDS011;2351;50.812;12.872;2023-06-01T03:28:34;13.53;;;3.80;;
4674;SDS011;2351;50.812;12.872;2023-06-01T03:31:07;4.20;;;2.83;;
4674;SDS011;2351;50.812;12.872;2023-06-01T03:33:41;4.93;;;3.30;;
4674;SDS011;2351;50.812;12.872;2023-06-01T03:36:12;6.53;;;3.50;;
4674;SDS011;2351;50.812;12.872;2023-06-01T03:38:44;15.27;;;4.90;;
4674;SDS011;2351;50.812;12.872;2023-06-01T03:41:16;4.13;;;3.70;;
4674;SDS011;2351;50.812;12.872;2023-06-01T03:43:48;5.37;;;3.40;;
4674;SDS011;2351;50.812;12.872;2023-06-01T03:46:21;4.73;;;3.60;;
4674;SDS011;2351;50.812;12.872;2023-06-01T03:48:53;9.90;;;4.00;;
4674;SDS011;2351;50.812;12.872;2023-06-01T03:51:25;5.90;;;3.90;;
4674;SDS011;2351;50.812;12.872;2023-06-01T03:53:56;9.00;;;3.30;;
4674;SDS011;2351;50.812;12.872;2023-06-01T03:56:28;7.83;;;3.87;;
4674;SDS011;2351;50.812;12.872;2023-06-01T03:59:00;5.70;;;3.70;;
4674;SDS011;2351;50.812;12.872;2023-06-01T04:01:33;7.23;;;4.80;;
4674;SDS011;2351;50.812;12.872;2023-06-01T04:04:06;6.93;;;4.07;;
4674;SDS011;2351;50.812;12.872;2023-06-01T04:06:38;5.83;;;3.77;;
4674;SDS011;2351;50.812;12.872;2023-06-01T04:09:11;8.83;;;4.63;;
4674;SDS011;2351;50.812;12.872;2023-06-01T04:11:44;5.77;;;4.10;;
4674;SDS011;2351;50.812;12.872;2023-06-01T04:14:16;11.60;;;4.10;;
4674;SDS011;2351;50.812;12.872;2023-06-01T04:16:49;6.63;;;4.30;;
4674;SDS011;2351;50.812;12.872;2023-06-01T04:19:21;5.27;;;3.73;;
4674;SDS011;2351;50.812;12.872;2023-06-01T04:21:52;5.53;;;3.70;;
4674;SDS011;2351;50.812;12.872;2023-06-01T04:24:24;4.77;;;3.57;;
4674;SDS011;2351;50.812;12.872;2023-06-01T04:26:56;10.20;;;4.53;;
4674;SDS011;2351;50.812;12.872;2023-06-01T04:29:29;7.77;;;4.00;;
4674;SDS011;2351;50.812;12.872;2023-06-01T04:32:02;5.37;;;4.03;;
4674;SDS011;2351;50.812;12.872;2023-06-01T04:34:35;5.93;;;4.10;;
4674;SDS011;2351;50.812;12.872;2023-06-01T04:37:09;5.83;;;4.33;;
4674;SDS011;2351;50.812;12.872;2023-06-01T04:39:42;5.77;;;3.97;;
4674;SDS011;2351;50.812;12.872;2023-06-01T04:42:16;10.63;;;4.10;;
4674;SDS011;2351;50.812;12.872;2023-06-01T04:44:48;5.27;;;4.23;;
4674;SDS011;2351;50.812;12.872;2023-06-01T04:47:22;7.43;;;4.40;;
4674;SDS011;2351;50.812;12.872;2023-06-01T04:49:54;4.63;;;3.73;;
4674;SDS011;2351;50.812;12.872;2023-06-01T04:52:26;12.57;;;4.73;;
4674;SDS011;2351;50.812;12.872;2023-06-01T04:54:58;11.20;;;4.10;;
4674;SDS011;2351;50.812;12.872;2023-06-01T04:57:29;7.93;;;4.60;;
4674;SDS011;2351;50.812;12.872;2023-06-01T05:00:02;7.37;;;3.33;;
4674;SDS011;2351;50.812;12.872;2023-06-01T05:02:44;7.50;;;3.20;;
4674;SDS011;2351;50.812;12.872;2023-06-01T05:05:18;11.10;;;3.20;;
4674;SDS011;2351;50.812;12.872;2023-06-01T05:07:49;3.47;;;3.13;;
4674;SDS011;2351;50.812;12.872;2023-06-01T05:10:21;5.07;;;3.50;;
4674;SDS011;2351;50.812;12.872;2023-06-01T05:12:53;7.50;;;4.00;;
4674;SDS011;2351;50.812;12.872;2023-06-01T05:15:25;6.30;;;3.80;;
4674;SDS011;2351;50.812;12.872;2023-06-01T05:17:59;4.13;;;3.10;;
4674;SDS011;2351;50.812;12.872;2023-06-01T05:20:31;6.03;;;3.47;;
4674;SDS011;2351;50.812;12.872;2023-06-01T05:23:03;4.77;;;3.50;;
4674;SDS011;2351;50.812;12.872;2023-06-01T05:25:34;5.03;;;3.13;;
4674;SDS011;2351;50.812;12.872;2023-06-01T05:28:06;3.80;;;3.30;;
4674;SDS011;2351;50.812;12.872;2023-06-01T05:30:38;14.97;;;3.90;;
4674;SDS011;2351;50.812;12.872;2023-06-01T05:33:11;7.10;;;3.63;;
4674;SDS011;2351;50.812;12.872;2023-06-01T05:35:42;4.93;;;2.80;;
4674;SDS011;2351;50.812;12.872;2023-06-01T05:38:14;6.90;;;2.83;;
4674;SDS011;2351;50.812;12.872;2023-06-01T05:40:46;7.90;;;3.00;;
4674;SDS011;2351;50.812;12.872;2023-06-01T05:43:18;3.73;;;2.93;;
4674;SDS011;2351;50.812;12.872;2023-06-01T05:45:49;5.43;;;3.10;;
4674;SDS011;2351;50.812;12.872;2023-06-01T05:48:22;4.40;;;2.70;;
4674;SDS011;2351;50.812;12.872;2023-06-01T05:50:54;10.17;;;3.10;;
4674;SDS011;2351;50.812;12.872;2023-06-01T05:53:26;10.53;;;3.80;;
4674;SDS011;2351;50.812;12.872;2023-06-01T05:55:58;7.83;;;3.87;;
4674;SDS011;2351;50.812;12.872;2023-06-01T05:58:30;4.27;;;3.23;;
4674;SDS011;2351;50.812;12.872;2023-06-01T06:01:02;12.03;;;3.10;;
4674;SDS011;2351;50.812;12.872;2023-06-01T06:03:35;3.53;;;3.10;;
4674;SDS011;2351;50.812;12.872;2023-06-01T06:06:08;2.97;;;2.63;;
4674;SDS011;2351;50.812;12.872;2023-06-01T06:08:40;4.17;;;2.77;;
4674;SDS011;2351;50.812;12.872;2023-06-01T06:11:11;4.87;;;2.83;;
4674;SDS011;2351;50.812;12.872;2023-06-01T06:13:43;5.07;;;2.83;;
4674;SDS011;2351;50.812;12.872;2023-06-01T06:16:15;9.47;;;3.30;;
4674;SDS011;2351;50.812;12.872;2023-06-01T06:18:48;5.77;;;2.57;;
4674;SDS011;2351;50.812;12.872;2023-06-01T06:21:20;6.63;;;2.67;;
4674;SDS011;2351;50.812;12.872;2023-06-01T06:23:52;6.20;;;2.13;;
4674;SDS011;2351;50.812;12.872;2023-06-01T06:26:28;6.77;;;2.40;;
4674;SDS011;2351;50.812;12.872;2023-06-01T06:29:00;5.10;;;2.70;;
4674;SDS011;2351;50.812;12.872;2023-06-01T06:31:32;4.43;;;2.67;;
4674;SDS011;2351;50.812;12.872;2023-06-01T06:34:05;8.83;;;3.00;;
4674;SDS011;2351;50.812;12.872;2023-06-01T06:36:37;9.90;;;2.60;;
4674;SDS011;2351;50.812;12.872;2023-06-01T06:39:08;4.37;;;3.17;;
4674;SDS011;2351;50.812;12.872;2023-06-01T06:41:40;5.20;;;2.70;;
4674;SDS011;2351;50.812;12.872;2023-06-01T06:44:12;16.47;;;3.67;;
4674;SDS011;2351;50.812;12.872;2023-06-01T06:46:44;17.10;;;3.53;;
4674;SDS011;2351;50.812;12.872;2023-06-01T06:49:17;5.27;;;2.70;;
4674;SDS011;2351;50.812;12.872;2023-06-01T06:51:49;3.67;;;2.90;;
4674;SDS011;2351;50.812;12.872;2023-06-01T06:54:21;6.30;;;3.60;;
4674;SDS011;2351;50.812;12.872;2023-06-01T06:56:53;4.83;;;3.27;;
4674;SDS011;2351;50.812;12.872;2023-06-01T06:59:25;5.87;;;3.80;;
4674;SDS011;2351;50.812;12.872;2023-06-01T07:01:56;7.50;;;3.50;;
4674;SDS011;2351;50.812;12.872;2023-06-01T07:04:29;9.10;;;3.50;;
4674;SDS011;2351;50.812;12.872;2023-06-01T07:07:01;8.53;;;4.30;;
4674;SDS011;2351;50.812;12.872;2023-06-01T07:09:34;6.20;;;3.70;;
4674;SDS011;2351;50.812;12.872;2023-06-01T07:12:06;6.03;;;3.70;;
4674;SDS011;2351;50.812;12.872;2023-06-01T07:14:38;6.57;;;4.03;;
4674;SDS011;2351;50.812;12.872;2023-06-01T07:17:10;9.40;;;4.23;;
4674;SDS011;2351;50.812;12.872;2023-06-01T07:19:43;9.20;;;3.67;;
4674;SDS011;2351;50.812;12.872;2023-06-01T07:22:15;5.33;;;3.97;;
4674;SDS011;2351;50.812;12.872;2023-06-01T07:24:47;12.43;;;3.13;;
4674;SDS011;2351;50.812;12.872;2023-06-01T07:27:19;6.53;;;4.53;;
4674;SDS011;2351;50.812;12.872;2023-06-01T07:29:51;12.73;;;4.10;;
4674;SDS011;2351;50.812;12.872;2023-06-01T07:32:25;9.60;;;4.33;;
4674;SDS011;2351;50.812;12.872;2023-06-01T07:34:58;4.57;;;3.30;;
4674;SDS011;2351;50.812;12.872;2023-06-01T07:37:31;4.90;;;2.90;;
4674;SDS011;2351;50.812;12.872;2023-06-01T07:40:03;6.90;;;2.97;;
4674;SDS011;2351;50.812;12.872;2023-06-01T07:42:36;3.63;;;2.90;;
4674;SDS011;2351;50.812;12.872;2023-06-01T07:45:08;11.27;;;3.50;;
4674;SDS011;2351;50.812;12.872;2023-06-01T07:47:41;5.60;;;3.10;;
4674;SDS011;2351;50.812;12.872;2023-06-01T07:50:14;8.70;;;4.20;;
4674;SDS011;2351;50.812;12.872;2023-06-01T07:52:46;9.43;;;3.20;;
4674;SDS011;2351;50.812;12.872;2023-06-01T07:55:18;7.43;;;2.77;;
4674;SDS011;2351;50.812;12.872;2023-06-01T07:57:49;7.07;;;3.33;;
4674;SDS011;2351;50.812;12.872;2023-06-01T08:00:21;14.33;;;3.37;;
4674;SDS011;2351;50.812;12.872;2023-06-01T08:02:53;7.60;;;3.57;;
4674;SDS011;2351;50.812;12.872;2023-06-01T08:05:27;5.97;;;3.20;;
4674;SDS011;2351;50.812;12.872;2023-06-01T08:07:58;3.40;;;2.83;;
4674;SDS011;2351;50.812;12.872;2023-06-01T08:10:30;5.30;;;3.40;;
4674;SDS011;2351;50.812;12.872;2023-06-01T08:13:02;8.80;;;3.07;;
4674;SDS011;2351;50.812;12.872;2023-06-01T08:15:34;7.90;;;3.30;;
4674;SDS011;2351;50.812;12.872;2023-06-01T08:18:07;6.20;;;3.00;;
4674;SDS011;2351;50.812;12.872;2023-06-01T08:20:40;5.50;;;2.67;;
4674;SDS011;2351;50.812;12.872;2023-06-01T08:23:12;5.63;;;3.30;;
4674;SDS011;2351;50.812;12.872;2023-06-01T08:25:46;5.50;;;2.80;;
4674;SDS011;2351;50.812;12.872;2023-06-01T08:28:18;4.93;;;2.77;;
4674;SDS011;2351;50.812;12.872;2023-06-01T08:30:49;6.90;;;3.13;;
4674;SDS011;2351;50.812;12.872;2023-06-01T08:33:21;4.73;;;2.97;;
4674;SDS011;2351;50.812;12.872;2023-06-01T08:35:54;5.23;;;3.03;;
4674;SDS011;2351;50.812;12.872;2023-06-01T08:38:26;4.93;;;2.67;;
4674;SDS011;2351;50.812;12.872;2023-06-01T08:41:02;2.93;;;2.30;;
4674;SDS011;2351;50.812;12.872;2023-06-01T08:43:39;6.57;;;3.70;;
4674;SDS011;2351;50.812;12.872;2023-06-01T08:46:12;3.40;;;2.67;;
4674;SDS011;2351;50.812;12.872;2023-06-01T08:48:46;3.53;;;2.73;;
4674;SDS011;2351;50.812;12.872;2023-06-01T08:51:22;5.57;;;2.63;;
4674;SDS011;2351;50.812;12.872;2023-06-01T08:53:56;7.80;;;3.00;;
4674;SDS011;2351;50.812;12.872;2023-06-01T08:56:31;5.27;;;3.03;;
4674;SDS011;2351;50.812;12.872;2023-06-01T08:59:03;5.93;;;2.33;;
4674;SDS011;2351;50.812;12.872;2023-06-01T09:01:35;7.33;;;2.57;;
4674;SDS011;2351;50.812;12.872;2023-06-01T09:04:08;6.83;;;2.30;;
4674;SDS011;2351;50.812;12.872;2023-06-01T09:06:42;2.67;;;2.17;;
4674;SDS011;2351;50.812;12.872;2023-06-01T09:09:14;2.53;;;2.10;;
4674;SDS011;2351;50.812;12.872;2023-06-01T09:11:46;4.77;;;2.73;;
4674;SDS011;2351;50.812;12.872;2023-06-01T09:14:21;1.90;;;1.70;;
4674;SDS011;2351;50.812;12.872;2023-06-01T09:16:53;3.17;;;1.77;;
4674;SDS011;2351;50.812;12.872;2023-06-01T09:19:25;3.47;;;1.57;;
4674;SDS011;2351;50.812;12.872;2023-06-01T09:22:13;3.73;;;1.60;;
4674;SDS011;2351;50.812;12.872;2023-06-01T09:24:55;2.30;;;1.27;;
4674;SDS011;2351;50.812;12.872;2023-06-01T09:27:28;2.27;;;1.30;;
4674;SDS011;2351;50.812;12.872;2023-06-01T09:29:59;2.87;;;1.43;;
4674;SDS011;2351;50.812;12.872;2023-06-01T09:32:31;4.50;;;2.20;;
4674;SDS011;2351;50.812;12.872;2023-06-01T09:35:05;3.50;;;1.83;;
4674;SDS011;2351;50.812;12.872;2023-06-01T09:37:39;2.00;;;1.50;;
4674;SDS011;2351;50.812;12.872;2023-06-01T09:40:25;2.90;;;2.20;;
4674;SDS011;2351;50.812;12.872;2023-06-01T09:42:57;2.50;;;2.03;;
4674;SDS011;2351;50.812;12.872;2023-06-01T09:45:30;2.47;;;2.07;;
4674;SDS011;2351;50.812;12.872;2023-06-01T09:48:16;3.37;;;2.20;;
4674;SDS011;2351;50.812;12.872;2023-06-01T09:50:48;2.83;;;2.03;;
4674;SDS011;2351;50.812;12.872;2023-06-01T09:53:21;3.20;;;2.00;;
4674;SDS011;2351;50.812;12.872;2023-06-01T09:55:57;3.33;;;2.30;;
4674;SDS011;2351;50.812;12.872;2023-06-01T09:58:29;5.20;;;1.83;;
4674;SDS011;2351;50.812;12.872;2023-06-01T10:01:02;7.83;;;1.90;;
4674;SDS011;2351;50.812;12.872;2023-06-01T10:03:40;3.30;;;1.83;;
4674;SDS011;2351;50.812;12.872;2023-06-01T10:06:12;3.20;;;1.97;;
4674;SDS011;2351;50.812;12.872;2023-06-01T10:08:47;2.20;;;1.93;;
4674;SDS011;2351;50.812;12.872;2023-06-01T10:11:21;6.10;;;1.87;;
4674;SDS011;2351;50.812;12.872;2023-06-01T10:13:53;4.13;;;2.00;;
4674;SDS011;2351;50.812;12.872;2023-06-01T10:16:26;4.87;;;2.00;;
4674;SDS011;2351;50.812;12.872;2023-06-01T10:18:57;2.37;;;2.10;;
4674;SDS011;2351;50.812;12.872;2023-06-01T10:21:30;4.40;;;2.30;;
4674;SDS011;2351;50.812;12.872;2023-06-01T10:24:04;5.67;;;2.30;;
4674;SDS011;2351;50.812;12.872;2023-06-01T10:26:38;5.07;;;1.97;;
4674;SDS011;2351;50.812;12.872;2023-06-01T10:29:15;2.93;;;1.70;;
4674;SDS011;2351;50.812;12.872;2023-06-01T10:31:49;1.83;;;1.70;;
4674;SDS011;2351;50.812;12.872;2023-06-01T10:34:37;5.07;;;2.20;;
4674;SDS011;2351;50.812;12.872;2023-06-01T10:37:11;4.13;;;1.73;;
4674;SDS011;2351;50.812;12.872;2023-06-01T10:39:48;2.10;;;1.90;;
4674;SDS011;2351;50.812;12.872;2023-06-01T10:42:36;6.47;;;2.50;;
4674;SDS011;2351;50.812;12.872;2023-06-01T10:48:10;5.70;;;2.07;;
4674;SDS011;2351;50.812;12.872;2023-06-01T10:50:43;5.40;;;2.20;;
4674;SDS011;2351;50.812;12.872;2023-06-01T10:53:48;2.60;;;2.20;;
4674;SDS011;2351;50.812;12.872;2023-06-01T10:56:21;3.23;;;1.80;;
4674;SDS011;2351;50.812;12.872;2023-06-01T11:01:42;23.70;;;2.47;;
4674;SDS011;2351;50.812;12.872;2023-06-01T11:04:15;4.20;;;2.23;;
4674;SDS011;2351;50.812;12.872;2023-06-01T11:06:46;4.50;;;2.00;;
4674;SDS011;2351;50.812;12.872;2023-06-01T11:09:18;4.83;;;2.17;;
4674;SDS011;2351;50.812;12.872;2023-06-01T11:12:00;3.77;;;1.40;;
4674;SDS011;2351;50.812;12.872;2023-06-01T11:14:32;2.10;;;1.77;;
4674;SDS011;2351;50.812;12.872;2023-06-01T11:20:00;6.33;;;1.77;;
4674;SDS011;2351;50.812;12.872;2023-06-01T11:22:41;5.57;;;1.80;;
4674;SDS011;2351;50.812;12.872;2023-06-01T11:25:13;2.00;;;1.80;;
4674;SDS011;2351;50.812;12.872;2023-06-01T11:27:50;2.40;;;1.53;;
4674;SDS011;2351;50.812;12.872;2023-06-01T11:30:24;4.80;;;2.60;;
4674;SDS011;2351;50.812;12.872;2023-06-01T11:32:56;3.80;;;2.37;;
4674;SDS011;2351;50.812;12.872;2023-06-01T11:35:29;5.10;;;1.93;;
4674;SDS011;2351;50.812;12.872;2023-06-01T11:38:00;2.23;;;1.70;;
4674;SDS011;2351;50.812;12.872;2023-06-01T11:40:32;3.87;;;1.70;;
4674;SDS011;2351;50.812;12.872;2023-06-01T11:43:05;3.90;;;2.17;;
4674;SDS011;2351;50.812;12.872;2023-06-01T11:45:37;3.73;;;1.70;;
4674;SDS011;2351;50.812;12.872;2023-06-01T11:48:09;9.57;;;1.90;;
4674;SDS011;2351;50.812;12.872;2023-06-01T11:50:45;3.30;;;2.10;;
4674;SDS011;2351;50.812;12.872;2023-06-01T11:53:18;5.03;;;2.20;;
4674;SDS011;2351;50.812;12.872;2023-06-01T11:55:50;5.07;;;2.50;;
4674;SDS011;2351;50.812;12.872;2023-06-01T11:58:24;6.17;;;2.30;;
4674;SDS011;2351;50.812;12.872;2023-06-01T12:00:57;6.20;;;3.10;;
4674;SDS011;2351;50.812;12.872;2023-06-01T12:03:29;10.83;;;2.17;;
4674;SDS011;2351;50.812;12.872;2023-06-01T12:06:01;3.90;;;2.40;;
4674;SDS011;2351;50.812;12.872;2023-06-01T12:08:33;9.03;;;2.90;;
4674;SDS011;2351;50.812;12.872;2023-06-01T12:11:06;12.13;;;3.33;;
4674;SDS011;2351;50.812;12.872;2023-06-01T12:13:40;5.60;;;2.90;;
4674;SDS011;2351;50.812;12.872;2023-06-01T12:16:12;9.37;;;2.30;;
4674;SDS011;2351;50.812;12.872;2023-06-01T12:18:45;6.90;;;2.90;;
4674;SDS011;2351;50.812;12.872;2023-06-01T12:21:16;4.40;;;1.97;;
4674;SDS011;2351;50.812;12.872;2023-06-01T12:23:48;8.90;;;2.30;;
4674;SDS011;2351;50.812;12.872;2023-06-01T12:26:21;2.20;;;1.90;;
4674;SDS011;2351;50.812;12.872;2023-06-01T12:28:54;2.00;;;1.50;;
4674;SDS011;2351;50.812;12.872;2023-06-01T12:31:28;5.37;;;2.50;;
4674;SDS011;2351;50.812;12.872;2023-06-01T12:34:00;2.87;;;1.80;;
4674;SDS011;2351;50.812;12.872;2023-06-01T12:36:32;4.87;;;2.87;;
4674;SDS011;2351;50.812;12.872;2023-06-01T12:39:05;9.90;;;2.33;;
4674;SDS011;2351;50.812;12.872;2023-06-01T12:41:46;2.87;;;2.60;;
4674;SDS011;2351;50.812;12.872;2023-06-01T12:44:21;2.20;;;2.03;;
4674;SDS011;2351;50.812;12.872;2023-06-01T12:46:55;4.87;;;2.20;;
4674;SDS011;2351;50.812;12.872;2023-06-01T12:49:28;2.23;;;1.70;;
4674;SDS011;2351;50.812;12.872;2023-06-01T12:52:00;2.20;;;1.93;;
4674;SDS011;2351;50.812;12.872;2023-06-01T12:54:32;5.10;;;2.23;;
4674;SDS011;2351;50.812;12.872;2023-06-01T12:57:11;4.80;;;2.20;;
4674;SDS011;2351;50.812;12.872;2023-06-01T12:59:46;5.97;;;2.87;;
4674;SDS011;2351;50.812;12.872;2023-06-01T13:02:18;5.70;;;2.07;;
4674;SDS011;2351;50.812;12.872;2023-06-01T13:04:50;3.70;;;2.53;;
4674;SDS011;2351;50.812;12.872;2023-06-01T13:07:23;2.13;;;1.90;;
4674;SDS011;2351;50.812;12.872;2023-06-01T13:09:55;4.40;;;2.30;;
4674;SDS011;2351;50.812;12.872;2023-06-01T13:12:27;4.40;;;2.93;;
4674;SDS011;2351;50.812;12.872;2023-06-01T13:15:01;8.40;;;2.40;;
4674;SDS011;2351;50.812;12.872;2023-06-01T13:17:33;5.47;;;2.20;;
4674;SDS011;2351;50.812;12.872;2023-06-01T13:20:06;2.63;;;2.17;;
4674;SDS011;2351;50.812;12.872;2023-06-01T13:22:40;3.70;;;2.37;;
4674;SDS011;2351;50.812;12.872;2023-06-01T13:25:12;3.27;;;2.20;;
4674;SDS011;2351;50.812;12.872;2023-06-01T13:27:45;5.63;;;2.37;;
4674;SDS011;2351;50.812;12.872;2023-06-01T13:30:18;4.87;;;2.63;;
4674;SDS011;2351;50.812;12.872;2023-06-01T13:32:50;5.00;;;2.60;;
4674;SDS011;2351;50.812;12.872;2023-06-01T13:35:23;8.77;;;2.40;;
4674;SDS011;2351;50.812;12.872;2023-06-01T13:37:54;7.77;;;2.73;;
4674;SDS011;2351;50.812;12.872;2023-06-01T13:40:26;10.90;;;2.87;;
4674;SDS011;2351;50.812;12.872;2023-06-01T13:42:58;5.53;;;2.60;;
4674;SDS011;2351;50.812;12.872;2023-06-01T13:45:32;5.07;;;2.47;;
4674;SDS011;2351;50.812;12.872;2023-06-01T13:48:04;5.00;;;2.70;;
4674;SDS011;2351;50.812;12.872;2023-06-01T13:50:35;10.50;;;2.87;;
4674;SDS011;2351;50.812;12.872;2023-06-01T13:53:07;5.63;;;3.00;;
4674;SDS011;2351;50.812;12.872;2023-06-01T13:55:39;3.90;;;2.53;;
4674;SDS011;2351;50.812;12.872;2023-06-01T13:58:11;6.17;;;3.47;;
4674;SDS011;2351;50.812;12.872;2023-06-01T14:00:44;6.00;;;2.90;;
4674;SDS011;2351;50.812;12.872;2023-06-01T14:03:17;8.73;;;3.03;;
4674;SDS011;2351;50.812;12.872;2023-06-01T14:05:49;10.30;;;3.70;;
4674;SDS011;2351;50.812;12.872;2023-06-01T14:08:21;3.93;;;2.60;;
4674;SDS011;2351;50.812;12.872;2023-06-01T14:10:52;4.00;;;2.90;;
4674;SDS011;2351;50.812;12.872;2023-06-01T14:13:24;6.80;;;2.43;;
4674;SDS011;2351;50.812;12.872;2023-06-01T14:15:57;3.30;;;2.83;;
4674;SDS011;2351;50.812;12.872;2023-06-01T14:18:29;9.93;;;3.43;;
4674;SDS011;2351;50.812;12.872;2023-06-01T14:21:01;7.50;;;3.40;;
4674;SDS011;2351;50.812;12.872;2023-06-01T14:23:32;10.03;;;2.90;;
4674;SDS011;2351;50.812;12.872;2023-06-01T14:26:05;6.97;;;4.00;;
4674;SDS011;2351;50.812;12.872;2023-06-01T14:28:37;3.97;;;3.03;;
4674;SDS011;2351;50.812;12.872;2023-06-01T14:31:10;3.83;;;2.87;;
4674;SDS011;2351;50.812;12.872;2023-06-01T14:33:42;6.60;;;3.57;;
4674;SDS011;2351;50.812;12.872;2023-06-01T14:36:15;4.93;;;3.10;;
4674;SDS011;2351;50.812;12.872;2023-06-01T14:38:48;16.70;;;3.23;;
4674;SDS011;2351;50.812;12.872;2023-06-01T14:42:23;6.03;;;2.90;;
4674;SDS011;2351;50.812;12.872;2023-06-01T14:44:34;6.50;;;3.37;;
4674;SDS011;2351;50.812;12.872;2023-06-01T14:47:07;5.00;;;3.80;;
4674;SDS011;2351;50.812;12.872;2023-06-01T14:49:41;6.30;;;3.70;;
4674;SDS011;2351;50.812;12.872;2023-06-01T14:52:13;6.30;;;4.17;;
4674;SDS011;2351;50.812;12.872;2023-06-01T14:54:44;11.03;;;4.40;;
4674;SDS011;2351;50.812;12.872;2023-06-01T14:57:16;6.30;;;4.40;;
4674;SDS011;2351;50.812;12.872;2023-06-01T15:07:01;8.17;;;4.70;;
4674;SDS011;2351;50.812;12.872;2023-06-01T15:09:33;7.77;;;4.63;;
4674;SDS011;2351;50.812;12.872;2023-06-01T15:12:05;11.27;;;4.27;;
4674;SDS011;2351;50.812;12.872;2023-06-01T15:14:38;12.60;;;4.63;;
4674;SDS011;2351;50.812;12.872;2023-06-01T15:17:10;7.40;;;4.37;;
4674;SDS011;2351;50.812;12.872;2023-06-01T15:19:42;9.13;;;4.77;;
4674;SDS011;2351;50.812;12.872;2023-06-01T15:22:15;6.57;;;4.70;;
4674;SDS011;2351;50.812;12.872;2023-06-01T15:24:47;6.73;;;4.33;;
4674;SDS011;2351;50.812;12.872;2023-06-01T15:27:18;7.07;;;6.00;;
4674;SDS011;2351;50.812;12.872;2023-06-01T15:29:50;7.50;;;5.20;;
4674;SDS011;2351;50.812;12.872;2023-06-01T15:32:22;19.17;;;5.03;;
4674;SDS011;2351;50.812;12.872;2023-06-01T15:34:54;9.40;;;5.13;;
4674;SDS011;2351;50.812;12.872;2023-06-01T15:56:18;6.43;;;4.73;;
4674;SDS011;2351;50.812;12.872;2023-06-01T15:58:51;7.00;;;4.90;;
4674;SDS011;2351;50.812;12.872;2023-06-01T16:08:16;5.10;;;3.67;;
4674;SDS011;2351;50.812;12.872;2023-06-01T16:10:48;10.20;;;4.40;;
4674;SDS011;2351;50.812;12.872;2023-06-01T16:13:21;6.13;;;4.20;;
4674;SDS011;2351;50.812;12.872;2023-06-01T16:15:53;5.50;;;4.30;;
4674;SDS011;2351;50.812;12.872;2023-06-01T16:18:25;3.97;;;3.13;;